createdAt,value
2023-02-24T00:01:49.621Z,101354.75
2023-02-24T00:04:17.516Z,101355.69
2023-02-24T00:06:45.636Z,101347.88
2023-02-24T00:09:15.716Z,101346.44
2023-02-24T00:11:45.107Z,101343.81
2023-02-24T00:14:15.942Z,101342.03
2023-02-24T00:16:45.308Z,101338.75
2023-02-24T00:19:16.672Z,101339.66
2023-02-24T00:21:45.012Z,101338.06
2023-02-24T00:24:14.353Z,101344.19
2023-02-24T00:26:42.840Z,101338.19
2023-02-24T00:29:13.692Z,101332.19
2023-02-24T00:31:43.439Z,101328.78
2023-02-24T00:34:13.370Z,101328.91
2023-02-24T00:36:42.737Z,101330.00
2023-02-24T00:39:12.704Z,101323.06
2023-02-24T00:41:43.517Z,101328.44
2023-02-24T00:44:16.076Z,101314.72
2023-02-24T00:46:45.960Z,101322.56
2023-02-24T00:49:17.334Z,101323.47
2023-02-24T00:51:49.092Z,101314.88
2023-02-24T00:54:17.701Z,101314.03
2023-02-24T00:56:47.556Z,101307.09
2023-02-24T00:59:16.881Z,101304.56
2023-02-24T01:01:45.179Z,101290.53
2023-02-24T01:04:14.318Z,101287.00
2023-02-24T01:06:45.090Z,101279.16
2023-02-24T01:09:16.082Z,101293.94
2023-02-24T01:12:23.052Z,101279.91
2023-02-24T01:14:53.022Z,101280.75
2023-02-24T01:17:22.001Z,101271.13
2023-02-24T01:19:50.310Z,101260.66
2023-02-24T01:22:19.747Z,101246.81
2023-02-24T01:24:49.755Z,101244.13
2023-02-24T01:27:21.377Z,101247.66
2023-02-24T01:29:49.791Z,101257.28
2023-02-24T01:32:20.247Z,101250.28
2023-02-24T01:34:48.284Z,101242.44
2023-02-24T01:37:16.895Z,101244.22
2023-02-24T01:39:45.252Z,101227.56
2023-02-24T01:42:19.389Z,101224.13
2023-02-24T01:45:16.219Z,101211.88
2023-02-24T01:47:47.300Z,101216.25
2023-02-24T01:50:17.667Z,101208.50
2023-02-24T01:52:47.588Z,101211.88
2023-02-24T01:55:20.201Z,101199.63
2023-02-24T01:57:50.236Z,101189.25
2023-02-24T02:00:33.696Z,101189.25
2023-02-24T02:03:04.085Z,101173.63
2023-02-24T02:05:31.769Z,101174.47
2023-02-24T02:08:00.487Z,101171.84
2023-02-24T02:10:28.997Z,101158.00
2023-02-24T02:12:58.176Z,101166.78
2023-02-24T02:15:26.007Z,101172.03
2023-02-24T02:18:02.605Z,101165.06
2023-02-24T02:21:09.821Z,101159.84
2023-02-24T02:23:55.077Z,101159.84
2023-02-24T02:26:55.135Z,101160.75
2023-02-24T02:29:45.584Z,101153.06
2023-02-24T02:32:42.069Z,101149.59
2023-02-24T02:35:13.981Z,101153.16
2023-02-24T02:37:48.697Z,101148.84
2023-02-24T02:40:23.223Z,101141.03
2023-02-24T02:42:56.889Z,101135.06
2023-02-24T02:45:29.090Z,101136.13
2023-02-24T02:48:01.011Z,101131.03
2023-02-24T02:50:35.853Z,101131.19
2023-02-24T02:53:05.495Z,101126.25
2023-02-24T02:55:37.487Z,101117.78
2023-02-24T02:58:09.157Z,101124.69
2023-02-24T03:00:42.109Z,101119.63
2023-02-24T03:03:12.642Z,101118.78
2023-02-24T03:05:46.940Z,101111.16
2023-02-24T03:08:16.595Z,101113.00
2023-02-24T03:10:50.589Z,101112.25
2023-02-24T03:13:20.357Z,101101.84
2023-02-24T03:15:48.452Z,101098.59
2023-02-24T03:18:19.272Z,101092.63
2023-02-24T03:20:52.768Z,101087.47
2023-02-24T03:23:25.452Z,101091.13
2023-02-24T03:25:58.630Z,101090.38
2023-02-24T03:28:34.064Z,101077.59
2023-02-24T03:31:05.599Z,101080.97
2023-02-24T03:33:36.506Z,101074.22
2023-02-24T03:36:07.091Z,101074.13
2023-02-24T03:38:38.307Z,101064.81
2023-02-24T03:41:11.166Z,101071.63
2023-02-24T03:43:41.986Z,101075.25
2023-02-24T03:46:10.017Z,101070.03
2023-02-24T03:48:47.652Z,101068.34
2023-02-24T03:51:20.027Z,101065.72
2023-02-24T03:53:58.137Z,101063.88
2023-02-24T03:56:30.399Z,101063.88
2023-02-24T03:59:12.760Z,101056.75
2023-02-24T04:01:46.731Z,101055.06
2023-02-24T04:04:20.123Z,101048.06
2023-02-24T04:06:56.091Z,101051.28
2023-02-24T04:09:29.616Z,101053.84
2023-02-24T04:12:00.012Z,101061.63
2023-02-24T04:14:31.384Z,101058.84
2023-02-24T04:17:02.932Z,101044.06
2023-02-24T04:19:33.217Z,101054.25
2023-02-24T04:22:03.940Z,101049.84
2023-02-24T04:24:32.094Z,101049.78
2023-02-24T04:27:02.359Z,101032.69
2023-02-24T04:29:35.440Z,101016.88
2023-02-24T04:32:07.164Z,101030.56
2023-02-24T04:34:35.153Z,101023.63
2023-02-24T04:37:04.211Z,101016.53
2023-02-24T04:39:33.557Z,101019.16
2023-02-24T04:42:01.764Z,101008.69
2023-02-24T04:44:29.478Z,101004.31
2023-02-24T04:46:57.153Z,100999.16
2023-02-24T04:49:24.889Z,100992.25
2023-02-24T04:51:52.591Z,100984.56
2023-02-24T04:54:24.307Z,100981.41
2023-02-24T04:56:52.901Z,100962.41
2023-02-24T04:59:21.559Z,100971.19
2023-02-24T05:01:51.671Z,100950.44
2023-02-24T05:04:19.848Z,100952.59
2023-02-24T05:06:47.864Z,100943.94
2023-02-24T05:09:18.158Z,100949.34
2023-02-24T05:11:49.131Z,100947.50
2023-02-24T05:14:18.441Z,100934.41
2023-02-24T05:16:47.214Z,100926.75
2023-02-24T05:19:36.977Z,100921.53
2023-02-24T05:22:07.000Z,100915.53
2023-02-24T05:24:35.311Z,100905.84
2023-02-24T05:27:04.558Z,100909.22
2023-02-24T05:29:34.967Z,100908.28
2023-02-24T05:32:04.367Z,100892.56
2023-02-24T05:34:34.042Z,100897.91
2023-02-24T05:37:04.441Z,100896.41
2023-02-24T05:39:32.877Z,100886.84
2023-02-24T05:42:06.122Z,100878.16
2023-02-24T05:44:36.500Z,100876.47
2023-02-24T05:47:05.740Z,100872.09
2023-02-24T05:49:34.806Z,100866.03
2023-02-24T05:52:07.795Z,100855.44
2023-02-24T05:54:37.776Z,100847.50
2023-02-24T05:57:08.936Z,100850.97
2023-02-24T05:59:38.600Z,100850.97
2023-02-24T06:02:09.609Z,100839.59
2023-02-24T06:04:45.803Z,100834.34
2023-02-24T06:07:19.063Z,100834.34
2023-02-24T06:09:50.151Z,100824.66
2023-02-24T06:12:18.828Z,100829.13
2023-02-24T06:14:48.344Z,100820.44
2023-02-24T06:17:18.692Z,100813.44
2023-02-24T06:19:48.009Z,100820.53
2023-02-24T06:22:16.892Z,100823.16
2023-02-24T06:24:45.407Z,100819.53
2023-02-24T06:27:17.656Z,100814.16
2023-02-24T06:29:49.918Z,100815.91
2023-02-24T06:32:17.932Z,100815.00
2023-02-24T06:34:45.758Z,100816.69
2023-02-24T06:37:15.243Z,100810.53
2023-02-24T06:39:43.199Z,100807.16
2023-02-24T06:42:12.191Z,100813.13
2023-02-24T06:44:42.029Z,100802.50
2023-02-24T06:47:14.146Z,100794.09
2023-02-24T06:49:42.657Z,100798.47
2023-02-24T06:52:10.976Z,100793.31
2023-02-24T06:54:38.671Z,100796.63
2023-02-24T06:57:08.724Z,100792.22
2023-02-24T06:59:36.432Z,100785.16
2023-02-24T07:02:04.185Z,100788.59
2023-02-24T07:04:43.620Z,100783.47
2023-02-24T07:07:14.308Z,100774.03
2023-02-24T07:09:44.016Z,100781.91
2023-02-24T07:12:12.529Z,100769.78
2023-02-24T07:14:40.977Z,100761.00
2023-02-24T07:17:08.857Z,100761.81
2023-02-24T07:19:38.220Z,100760.03
2023-02-24T07:22:05.956Z,100762.56
2023-02-24T07:24:36.571Z,100757.31
2023-02-24T07:27:06.180Z,100746.88
2023-02-24T07:29:35.417Z,100744.09
2023-02-24T07:32:05.748Z,100743.75
2023-02-24T07:34:34.236Z,100742.00
2023-02-24T07:37:07.971Z,100746.25
2023-02-24T07:39:37.493Z,100731.91
2023-02-24T07:42:06.347Z,100729.31
2023-02-24T07:44:34.236Z,100724.97
2023-02-24T07:47:07.628Z,100723.28
2023-02-24T07:49:36.201Z,100724.81
2023-02-24T07:52:08.127Z,100713.34
2023-02-24T07:54:36.187Z,100708.81
2023-02-24T07:57:03.957Z,100707.09
2023-02-24T07:59:33.368Z,100718.34
2023-02-24T08:02:04.824Z,100711.25
2023-02-24T08:04:33.928Z,100708.44
2023-02-24T08:07:03.381Z,100716.16
2023-02-24T08:10:03.507Z,100702.03
2023-02-24T08:12:31.225Z,100696.16
2023-02-24T08:15:00.263Z,100698.00
2023-02-24T08:17:28.629Z,100696.16
2023-02-24T08:20:17.787Z,100680.63
2023-02-24T08:22:52.036Z,100678.00
2023-02-24T08:25:23.156Z,100669.41
2023-02-24T08:28:12.261Z,100667.72
2023-02-24T08:30:45.354Z,100682.81
2023-02-24T08:33:17.517Z,100662.91
2023-02-24T08:35:45.621Z,100663.66
2023-02-24T08:38:16.259Z,100658.53
2023-02-24T08:40:54.879Z,100638.56
2023-02-24T08:43:33.068Z,100640.22
2023-02-24T08:46:04.385Z,100638.56
2023-02-24T08:48:37.411Z,100632.38
2023-02-24T08:51:10.967Z,100621.53
2023-02-24T08:53:40.574Z,100618.72
2023-02-24T08:56:11.635Z,100620.41
2023-02-24T08:58:47.122Z,100623.81
2023-02-24T09:01:24.282Z,100608.78
2023-02-24T09:03:54.725Z,100607.69
2023-02-24T09:06:26.353Z,100610.44
2023-02-24T09:09:17.122Z,100600.19
2023-02-24T09:11:46.911Z,100602.78
2023-02-24T09:14:26.589Z,100599.34
2023-02-24T09:17:06.932Z,100592.59
2023-02-24T09:20:02.976Z,100587.53
2023-02-24T09:22:31.898Z,100572.88
2023-02-24T09:25:21.315Z,100574.56
2023-02-24T09:27:56.385Z,100563.81
2023-02-24T09:30:36.775Z,100559.19
2023-02-24T09:33:17.626Z,100561.72
2023-02-24T09:35:51.123Z,100550.16
2023-02-24T09:38:20.397Z,100554.28
2023-02-24T09:40:52.299Z,100547.38
2023-02-24T09:43:24.513Z,100544.31
2023-02-24T09:45:58.399Z,100539.91
2023-02-24T09:48:43.559Z,100535.38
2023-02-24T09:51:21.628Z,100534.53
2023-02-24T09:53:53.797Z,100530.19
2023-02-24T09:56:28.575Z,100523.19
2023-02-24T09:59:10.272Z,100517.97
2023-02-24T10:01:43.753Z,100516.97
2023-02-24T10:04:49.190Z,100503.78
2023-02-24T10:07:18.690Z,100506.16
2023-02-24T10:09:51.142Z,100499.41
2023-02-24T10:12:24.060Z,100497.53
2023-02-24T10:15:16.888Z,100489.59
2023-02-24T10:17:47.334Z,100492.88
2023-02-24T10:20:30.940Z,100490.06
2023-02-24T10:23:01.924Z,100483.84
2023-02-24T10:25:43.578Z,100474.84
2023-02-24T10:28:23.013Z,100466.84
2023-02-24T10:31:04.015Z,100464.22
2023-02-24T10:33:38.881Z,100468.53
2023-02-24T10:36:09.313Z,100463.09
2023-02-24T10:38:38.087Z,100453.56
2023-02-24T10:41:07.175Z,100451.53
2023-02-24T10:43:45.446Z,100446.19
2023-02-24T10:46:41.150Z,100440.66
2023-02-24T10:49:16.510Z,100440.50
2023-02-24T10:51:49.239Z,100436.75
2023-02-24T10:54:34.421Z,100422.53
2023-02-24T10:57:15.886Z,100420.66
2023-02-24T11:00:19.553Z,100418.72
2023-02-24T11:03:10.468Z,100408.31
2023-02-24T11:05:44.383Z,100405.81
2023-02-24T11:08:36.359Z,100404.97
2023-02-24T11:11:20.370Z,100395.22
2023-02-24T11:14:09.516Z,100390.75
2023-02-24T11:17:06.110Z,100381.22
2023-02-24T11:19:38.833Z,100380.28
2023-02-24T11:22:08.753Z,100377.56
2023-02-24T11:24:38.373Z,100371.28
2023-02-24T11:27:06.382Z,100366.81
2023-02-24T11:29:43.582Z,100363.06
2023-02-24T11:32:20.047Z,100368.88
2023-02-24T11:34:54.062Z,100355.78
2023-02-24T11:37:30.856Z,100356.31
2023-02-24T11:40:01.576Z,100356.97
2023-02-24T11:42:34.231Z,100349.69
2023-02-24T11:45:06.457Z,100350.53
2023-02-24T11:47:38.284Z,100338.16
2023-02-24T11:50:20.532Z,100324.50
2023-02-24T11:52:49.273Z,100327.47
2023-02-24T11:55:26.247Z,100341.34
2023-02-24T11:57:57.377Z,100334.94
2023-02-24T12:00:27.985Z,100324.25
2023-02-24T12:03:02.274Z,100306.84
2023-02-24T12:05:36.837Z,100313.38
2023-02-24T12:08:07.132Z,100315.50
2023-02-24T12:10:37.829Z,100310.06
2023-02-24T12:13:14.801Z,100298.41
2023-02-24T12:15:46.668Z,100306.19
2023-02-24T12:18:19.879Z,100299.06
2023-02-24T12:20:52.258Z,100294.56
2023-02-24T12:23:24.576Z,100301.06
2023-02-24T12:26:01.981Z,100296.34
2023-02-24T12:28:41.082Z,100282.81
2023-02-24T12:31:17.951Z,100277.91
2023-02-24T12:33:52.189Z,100271.19
2023-02-24T12:36:31.031Z,100259.25
2023-02-24T12:39:06.951Z,100262.06
2023-02-24T12:41:44.764Z,100265.50
2023-02-24T12:44:23.227Z,100256.88
2023-02-24T12:46:58.120Z,100252.03
2023-02-24T12:49:35.624Z,100246.78
2023-02-24T12:52:12.108Z,100245.94
2023-02-24T12:54:43.202Z,100248.34
2023-02-24T12:57:14.940Z,100230.63
2023-02-24T12:59:43.252Z,100234.78
2023-02-24T13:02:17.762Z,100234.56
2023-02-24T13:04:52.353Z,100213.34
2023-02-24T13:07:43.271Z,100212.56
2023-02-24T13:10:20.266Z,100202.59
2023-02-24T13:12:51.869Z,100202.16
2023-02-24T13:15:22.401Z,100192.44
2023-02-24T13:17:51.703Z,100186.63
2023-02-24T13:20:33.119Z,100181.63
2023-02-24T13:23:04.888Z,100173.50
2023-02-24T13:25:34.772Z,100165.63
2023-02-24T13:28:03.985Z,100161.44
2023-02-24T13:30:36.976Z,100160.16
2023-02-24T13:33:08.552Z,100151.09
2023-02-24T13:35:37.719Z,100145.59
2023-02-24T13:38:12.100Z,100146.94
2023-02-24T13:40:39.889Z,100143.09
2023-02-24T13:43:24.281Z,100137.75
2023-02-24T13:45:57.078Z,100140.13
2023-02-24T13:48:46.620Z,100144.78
2023-02-24T13:51:25.599Z,100172.41
2023-02-24T13:54:04.029Z,100200.22
2023-02-24T13:56:38.550Z,100202.88
2023-02-24T13:59:30.307Z,100194.69
2023-02-24T14:01:59.780Z,100170.84
2023-02-24T14:04:29.672Z,100163.97
2023-02-24T14:07:00.292Z,100166.31
2023-02-24T14:09:33.755Z,100155.22
2023-02-24T14:12:02.665Z,100142.00
2023-02-24T14:14:31.059Z,100136.53
2023-02-24T14:16:58.674Z,100136.44
2023-02-24T14:19:27.020Z,100137.34
2023-02-24T14:21:56.558Z,100136.31
2023-02-24T14:24:24.975Z,100135.50
2023-02-24T14:26:55.765Z,100135.75
2023-02-24T14:29:26.637Z,100126.22
2023-02-24T14:31:55.324Z,100123.13
2023-02-24T14:34:25.724Z,100117.41
2023-02-24T14:36:55.304Z,100112.38
2023-02-24T14:39:24.401Z,100110.97
2023-02-24T14:44:23.726Z,100111.22
2023-02-24T14:46:53.436Z,100111.47
2023-02-24T14:49:24.179Z,100121.25
2023-02-24T14:51:56.002Z,100118.63
2023-02-24T14:54:35.555Z,100109.78
2023-02-24T14:57:03.603Z,100118.41
2023-02-24T14:59:34.788Z,100120.66
2023-02-24T15:02:03.803Z,100126.66
2023-02-24T15:04:36.806Z,100100.22
2023-02-24T15:07:07.288Z,100119.34
2023-02-24T15:09:37.118Z,100107.16
2023-02-24T15:12:14.319Z,100108.25
2023-02-24T15:14:44.433Z,100113.50
2023-02-24T15:17:16.956Z,100104.88
2023-02-24T15:19:47.071Z,100118.16
2023-02-24T15:22:50.080Z,100105.34
2023-02-24T15:25:24.110Z,100099.50
2023-02-24T15:27:57.287Z,100108.56
2023-02-24T15:30:32.500Z,100088.47
2023-02-24T15:33:02.891Z,100099.75
2023-02-24T15:35:33.162Z,100100.47
2023-02-24T15:38:03.352Z,100095.94
2023-02-24T15:40:31.748Z,100098.44
2023-02-24T15:43:01.106Z,100089.97
2023-02-24T15:45:31.708Z,100104.50
2023-02-24T15:48:01.049Z,100107.28
2023-02-24T15:50:30.258Z,100095.34
2023-02-24T15:52:59.488Z,100101.63
2023-02-24T15:55:32.557Z,100096.63
2023-02-24T15:58:02.774Z,100102.13
2023-02-24T16:00:31.370Z,100113.34
2023-02-24T16:02:59.478Z,100117.88
2023-02-24T16:05:27.294Z,100101.00
2023-02-24T16:07:55.800Z,100109.28
2023-02-24T16:10:25.656Z,100115.00
2023-02-24T16:12:55.834Z,100126.56
2023-02-24T16:15:25.842Z,100122.75
2023-02-24T16:17:53.977Z,100130.63
2023-02-24T16:20:27.471Z,100135.25
2023-02-24T16:24:53.160Z,100128.56
2023-02-24T16:27:23.784Z,100128.91
2023-02-24T16:29:51.497Z,100133.44
2023-02-24T16:32:21.581Z,100124.75
2023-02-24T16:34:49.382Z,100134.16
2023-02-24T16:37:19.445Z,100125.13
2023-02-24T16:39:49.380Z,100126.66
2023-02-24T16:42:20.260Z,100121.66
2023-02-24T16:44:50.085Z,100135.38
2023-02-24T16:47:19.790Z,100140.03
2023-02-24T16:52:02.419Z,100151.72
2023-02-24T16:54:30.045Z,100163.03
2023-02-24T16:56:58.433Z,100153.16
2023-02-24T16:59:26.756Z,100159.84
2023-02-24T17:01:54.798Z,100162.66
2023-02-24T17:04:24.818Z,100155.53
2023-02-24T17:08:31.783Z,100153.03
2023-02-24T17:10:59.484Z,100166.88
2023-02-24T17:13:27.155Z,100166.88
2023-02-24T17:15:57.226Z,100158.16
2023-02-24T17:18:25.885Z,100176.94
2023-02-24T17:20:54.094Z,100166.22
2023-02-24T17:23:21.963Z,100177.66
2023-02-24T17:25:53.110Z,100184.69
2023-02-24T17:28:21.174Z,100182.19
2023-02-24T17:30:49.004Z,100183.84
2023-02-24T17:33:16.797Z,100186.34
2023-02-24T17:35:46.932Z,100190.78
2023-02-24T17:38:14.896Z,100199.47
2023-02-24T17:40:43.158Z,100199.38
2023-02-24T17:43:12.679Z,100197.50
2023-02-24T17:45:44.342Z,100204.41
2023-02-24T17:48:12.771Z,100207.97
2023-02-24T17:50:42.489Z,100209.78
2023-02-24T17:53:10.218Z,100207.34
2023-02-24T17:55:38.011Z,100205.66
2023-02-24T17:58:05.808Z,100209.38
2023-02-24T18:00:34.902Z,100208.66
2023-02-24T18:03:03.623Z,100208.66
2023-02-24T18:05:31.444Z,100206.97
2023-02-24T18:07:59.292Z,100210.50
2023-02-24T18:10:27.305Z,100211.47
2023-02-24T18:12:55.067Z,100219.56
2023-02-24T18:15:22.862Z,100223.34
2023-02-24T18:17:51.921Z,100224.50
2023-02-24T18:20:19.964Z,100224.94
2023-02-24T18:22:47.584Z,100233.22
2023-02-24T18:25:15.307Z,100238.69
2023-02-24T18:27:43.062Z,100240.38
2023-02-24T18:30:13.042Z,100241.19
2023-02-24T18:32:44.448Z,100242.25
2023-02-24T18:35:14.333Z,100254.00
2023-02-24T18:37:41.978Z,100252.09
2023-02-24T18:40:11.111Z,100250.22
2023-02-24T18:42:38.861Z,100251.69
2023-02-24T18:45:07.226Z,100246.44
2023-02-24T18:47:34.967Z,100253.34
2023-02-24T18:50:02.805Z,100250.84
2023-02-24T18:52:31.843Z,100246.63
2023-02-24T18:54:59.545Z,100245.19
2023-02-24T18:57:27.315Z,100251.16
2023-02-24T18:59:54.956Z,100245.38
2023-02-24T19:02:22.725Z,100252.31
2023-02-24T19:04:50.457Z,100238.69
2023-02-24T19:07:18.150Z,100245.50
2023-02-24T19:09:49.608Z,100253.38
2023-02-24T19:12:19.207Z,100251.56
2023-02-24T19:14:46.942Z,100255.16
2023-02-24T19:17:14.656Z,100254.41
2023-02-24T19:19:43.481Z,100251.06
2023-02-24T19:22:11.181Z,100248.34
2023-02-24T19:24:38.865Z,100258.19
2023-02-24T19:27:08.750Z,100252.09
2023-02-24T19:29:36.771Z,100262.81
2023-02-24T19:32:04.537Z,100265.97
2023-02-24T19:34:32.340Z,100255.25
2023-02-24T19:37:00.052Z,100257.75
2023-02-24T19:39:27.750Z,100250.75
2023-02-24T19:41:57.518Z,100254.22
2023-02-24T19:44:26.591Z,100249.19
2023-02-24T19:46:54.372Z,100250.34
2023-02-24T19:49:22.036Z,100246.53
2023-02-24T19:51:49.753Z,100251.28
2023-02-24T19:54:17.705Z,100256.72
2023-02-24T19:56:45.401Z,100265.53
2023-02-24T19:59:13.099Z,100255.25
2023-02-24T20:01:42.649Z,100264.06
2023-02-24T20:04:10.516Z,100265.97
2023-02-24T20:06:40.707Z,100271.38
2023-02-24T20:09:09.956Z,100273.28
2023-02-24T20:11:38.082Z,100265.59
2023-02-24T20:14:06.214Z,100270.00
2023-02-24T20:16:34.836Z,100272.00
2023-02-24T20:19:06.049Z,100273.47
2023-02-24T20:21:34.886Z,100275.16
2023-02-24T20:24:03.231Z,100273.28
2023-02-24T20:26:30.975Z,100276.63
2023-02-24T20:28:58.871Z,100281.13
2023-02-24T20:31:26.912Z,100285.44
2023-02-24T20:33:54.669Z,100294.13
2023-02-24T20:36:27.018Z,100291.81
2023-02-24T20:38:56.630Z,100296.13
2023-02-24T20:41:24.328Z,100278.69
2023-02-24T20:43:52.072Z,100284.16
2023-02-24T20:46:24.041Z,100273.97
2023-02-24T20:48:52.332Z,100274.84
2023-02-24T20:51:20.097Z,100288.84
2023-02-24T20:53:57.296Z,100293.19
2023-02-24T20:56:25.924Z,100300.28
2023-02-24T20:58:59.813Z,100307.41
2023-02-24T21:01:28.415Z,100297.03
2023-02-24T21:03:56.296Z,100297.16
2023-02-24T21:06:24.499Z,100298.06
2023-02-24T21:08:54.135Z,100289.56
2023-02-24T21:11:23.064Z,100290.63
2023-02-24T21:13:51.929Z,100305.50
2023-02-24T21:16:21.007Z,100297.94
2023-02-24T21:18:50.546Z,100303.06
2023-02-24T21:21:19.937Z,100301.28
2023-02-24T21:23:48.413Z,100301.28
2023-02-24T21:26:17.801Z,100297.00
2023-02-24T21:28:46.538Z,100309.16
2023-02-24T21:31:16.704Z,100308.41
2023-02-24T21:33:44.650Z,100303.19
2023-02-24T21:36:14.343Z,100301.50
2023-02-24T21:38:42.352Z,100306.28
2023-02-24T21:41:13.491Z,100299.56
2023-02-24T21:43:42.796Z,100311.09
2023-02-24T21:46:11.371Z,100299.03
2023-02-24T21:48:40.591Z,100299.16
2023-02-24T21:51:10.484Z,100301.75
2023-02-24T21:53:40.782Z,100302.50
2023-02-24T21:56:11.037Z,100305.00
2023-02-24T21:58:40.177Z,100313.13
2023-02-24T22:01:12.192Z,100304.41
2023-02-24T22:03:40.088Z,100310.81
2023-02-24T22:06:10.226Z,100302.28
2023-02-24T22:08:43.068Z,100308.47
2023-02-24T22:11:11.650Z,100305.97
2023-02-24T22:13:39.394Z,100305.13
2023-02-24T22:16:08.569Z,100305.34
2023-02-24T22:18:37.727Z,100312.13
2023-02-24T22:21:09.167Z,100303.44
2023-02-24T22:23:36.857Z,100297.47
2023-02-24T22:26:05.822Z,100303.44
2023-02-24T22:28:34.846Z,100307.94
2023-02-24T22:31:03.002Z,100305.34
2023-02-24T22:33:31.887Z,100301.00
2023-02-24T22:36:03.664Z,100311.41
2023-02-24T22:38:32.557Z,100307.00
2023-02-24T22:41:01.546Z,100303.44
2023-02-24T22:43:29.714Z,100317.38
2023-02-24T22:45:59.039Z,100323.56
2023-02-24T22:48:26.789Z,100326.06
2023-02-24T22:50:55.659Z,100327.94
2023-02-24T22:53:25.464Z,100335.03
2023-02-24T22:55:53.140Z,100322.88
2023-02-24T22:58:21.963Z,100313.34
2023-02-24T23:00:49.718Z,100314.09
2023-02-24T23:03:19.637Z,100322.72
2023-02-24T23:05:55.537Z,100328.78
2023-02-24T23:08:24.852Z,100331.28
2023-02-24T23:10:52.673Z,100323.25
2023-02-24T23:13:20.939Z,100335.31
2023-02-24T23:15:48.810Z,100336.31
2023-02-24T23:18:16.840Z,100331.94
2023-02-24T23:20:45.615Z,100340.09
2023-02-24T23:23:13.367Z,100345.13
2023-02-24T23:25:44.751Z,100341.75
2023-02-24T23:28:12.411Z,100357.25
2023-02-24T23:30:42.132Z,100349.50
2023-02-24T23:33:11.033Z,100350.34
2023-02-24T23:35:39.542Z,100356.44
2023-02-24T23:38:07.618Z,100362.59
2023-02-24T23:40:48.062Z,100363.34
2023-02-24T23:43:18.901Z,100365.13
2023-02-24T23:45:46.734Z,100369.44
2023-02-24T23:48:15.658Z,100359.03
2023-02-24T23:50:45.905Z,100364.22
2023-02-24T23:53:13.609Z,100358.97
2023-02-24T23:55:41.592Z,100348.69
2023-02-24T23:58:09.635Z,100358.97
